createdAt,value
2019-03-15T00:25:14.253Z,12.80
2019-03-15T00:50:44.818Z,17.52
2019-03-15T00:56:44.551Z,10.38
2019-03-15T01:02:22.014Z,8.00
2019-03-15T01:04:54.804Z,13.50
2019-03-15T01:22:03.340Z,15.15
2019-03-15T01:24:35.586Z,12.63
2019-03-15T01:27:24.070Z,12.35
2019-03-15T01:30:04.374Z,12.53
2019-03-15T01:35:51.139Z,11.53
2019-03-15T01:38:21.369Z,11.15
2019-03-15T01:40:51.155Z,10.68
2019-03-15T01:43:23.347Z,14.07
2019-03-15T01:45:53.148Z,13.58
2019-03-15T01:48:22.489Z,14.95
2019-03-15T01:50:51.864Z,15.55
2019-03-15T01:53:23.735Z,11.18
2019-03-15T01:55:53.945Z,18.92
2019-03-15T01:58:23.037Z,11.43
2019-03-15T02:01:04.187Z,10.63
2019-03-15T02:04:01.795Z,16.50
2019-03-15T02:07:13.869Z,15.78
2019-03-15T02:09:44.614Z,14.63
2019-03-15T02:12:43.758Z,11.93
2019-03-15T02:19:11.135Z,19.20
2019-03-15T02:21:44.644Z,21.60
2019-03-15T02:24:14.251Z,16.10
2019-03-15T02:27:04.106Z,12.63
2019-03-15T02:29:42.215Z,19.32
2019-03-15T02:32:51.660Z,15.45
2019-03-15T02:35:24.910Z,16.17
2019-03-15T02:38:02.890Z,17.65
2019-03-15T02:40:35.194Z,21.17
2019-03-15T02:43:23.923Z,19.00
2019-03-15T02:46:54.634Z,12.88
2019-03-15T02:50:32.882Z,18.57
2019-03-15T02:52:13.629Z,20.68
2019-03-15T02:54:43.100Z,21.05
2019-03-15T02:57:12.610Z,13.60
2019-03-15T02:59:43.449Z,14.63
2019-03-15T03:02:16.093Z,21.35
2019-03-15T03:04:53.399Z,14.40
2019-03-15T03:07:25.306Z,11.97
2019-03-15T03:16:42.555Z,10.75
2019-03-15T03:19:15.213Z,18.50
2019-03-15T03:32:01.516Z,22.93
2019-03-15T03:42:13.586Z,17.67
2019-03-15T03:44:51.763Z,15.95
2019-03-15T03:47:35.447Z,17.42
2019-03-15T03:50:36.051Z,16.05
2019-03-15T03:52:41.492Z,15.75
2019-03-15T03:55:11.922Z,13.40
2019-03-15T03:58:12.928Z,18.05
2019-03-15T04:00:45.517Z,17.27
2019-03-15T04:03:20.810Z,14.75
2019-03-15T04:06:13.046Z,18.35
2019-03-15T04:08:42.427Z,11.00
2019-03-15T04:11:14.510Z,14.47
2019-03-15T04:14:11.074Z,9.05
2019-03-15T04:20:55.500Z,11.85
2019-03-15T04:23:25.154Z,14.93
2019-03-15T04:25:54.649Z,13.58
2019-03-15T04:32:31.055Z,9.40
2019-03-15T04:35:12.021Z,15.50
2019-03-15T04:37:45.694Z,12.95
2019-03-15T04:44:10.640Z,9.50
2019-03-15T04:46:42.367Z,10.60
2019-03-15T04:49:14.747Z,8.40
2019-03-15T04:52:34.280Z,5.50
2019-03-15T05:05:23.556Z,6.90
2019-03-15T05:07:55.817Z,7.72
2019-03-15T05:13:15.014Z,9.90
2019-03-15T05:15:45.490Z,7.72
2019-03-15T05:18:14.734Z,7.58
2019-03-15T05:20:43.748Z,9.63
2019-03-15T05:23:13.925Z,7.00
2019-03-15T05:25:43.241Z,12.33
2019-03-15T05:28:13.479Z,8.65
2019-03-15T05:30:42.581Z,6.83
2019-03-15T05:33:12.038Z,6.28
2019-03-15T05:35:43.203Z,8.98
2019-03-15T05:38:12.295Z,10.93
2019-03-15T05:40:44.327Z,14.25
2019-03-15T05:43:16.243Z,11.48
2019-03-15T05:45:45.870Z,9.23
2019-03-15T05:48:15.231Z,6.67
2019-03-15T05:51:34.880Z,9.73
2019-03-15T05:54:03.824Z,7.12
2019-03-15T05:56:41.906Z,14.05
2019-03-15T05:59:13.614Z,16.30
2019-03-15T06:02:11.660Z,11.90
2019-03-15T06:04:43.598Z,9.85
2019-03-15T06:08:27.567Z,8.88
2019-03-15T06:09:53.347Z,10.25
2019-03-15T06:12:20.572Z,5.80
2019-03-15T06:14:51.603Z,11.65
2019-03-15T06:17:43.552Z,10.25
2019-03-15T06:23:44.311Z,9.78
2019-03-15T06:26:14.264Z,8.93
2019-03-15T06:28:43.653Z,9.55
2019-03-15T06:31:13.887Z,8.08
2019-03-15T06:33:45.597Z,9.40
2019-03-15T06:36:14.763Z,11.57
2019-03-15T06:38:48.831Z,10.85
2019-03-15T06:41:17.969Z,6.67
2019-03-15T06:47:27.615Z,7.75
2019-03-15T06:49:39.082Z,6.33
2019-03-15T06:52:10.463Z,7.35
2019-03-15T06:54:39.545Z,5.97
2019-03-15T06:57:08.611Z,6.05
2019-03-15T06:59:37.870Z,9.08
2019-03-15T07:02:07.010Z,7.15
2019-03-15T07:04:36.094Z,5.22
2019-03-15T07:07:06.491Z,5.03
2019-03-15T07:09:38.485Z,6.37
2019-03-15T07:12:20.108Z,4.62
2019-03-15T07:14:51.426Z,7.25
2019-03-15T07:17:21.110Z,5.22
2019-03-15T07:19:50.295Z,4.72
2019-03-15T07:22:31.497Z,6.35
2019-03-15T07:25:00.812Z,7.10
2019-03-15T07:27:29.897Z,5.08
2019-03-15T07:30:00.076Z,6.25
2019-03-15T07:32:29.261Z,5.40
2019-03-15T07:34:58.410Z,6.08
2019-03-15T07:37:28.985Z,5.30
2019-03-15T07:40:27.148Z,10.10
2019-03-15T07:49:10.143Z,13.93
2019-03-15T07:51:49.628Z,27.20
2019-03-15T07:54:33.476Z,14.38
2019-03-15T07:56:54.836Z,10.28
2019-03-15T07:59:27.861Z,16.77
2019-03-15T08:01:58.727Z,17.62
2019-03-15T08:04:50.337Z,16.40
2019-03-15T08:07:36.400Z,18.87
2019-03-15T08:10:01.888Z,17.75
2019-03-15T08:12:31.226Z,16.52
2019-03-15T08:15:00.642Z,19.35
2019-03-15T08:17:38.074Z,18.00
2019-03-15T08:20:37.639Z,15.05
2019-03-15T08:23:08.849Z,20.48
2019-03-15T08:25:43.512Z,12.95
2019-03-15T08:28:19.513Z,15.45
2019-03-15T08:30:48.597Z,18.30
2019-03-15T08:33:20.414Z,14.05
2019-03-15T08:35:49.740Z,13.68
2019-03-15T08:38:19.060Z,17.15
2019-03-15T08:40:50.766Z,21.57
2019-03-15T08:43:19.909Z,16.48
2019-03-15T08:46:15.665Z,17.73
2019-03-15T08:48:50.463Z,21.17
2019-03-15T08:51:19.675Z,17.35
2019-03-15T08:53:50.629Z,18.50
2019-03-15T08:59:25.248Z,18.12
2019-03-15T09:02:00.589Z,18.32
2019-03-15T09:36:58.266Z,27.30
2019-03-15T09:39:29.972Z,24.75
2019-03-15T09:42:08.356Z,24.52
2019-03-15T09:44:38.676Z,19.67
2019-03-15T09:47:39.772Z,18.57
2019-03-15T09:50:33.253Z,20.50
2019-03-15T09:53:00.104Z,21.35
2019-03-15T10:17:10.856Z,16.23
2019-03-15T12:18:34.252Z,10.93
2019-03-15T12:21:00.381Z,12.85
2019-03-15T12:23:32.049Z,9.25
2019-03-15T14:02:21.843Z,15.32
2019-03-15T14:04:51.033Z,11.63
2019-03-15T14:07:20.293Z,18.15
2019-03-15T14:09:49.376Z,16.85
2019-03-15T14:12:18.449Z,14.03
2019-03-15T14:14:49.069Z,18.52
2019-03-15T14:17:18.805Z,24.85
2019-03-15T14:19:48.597Z,20.60
2019-03-15T14:22:17.852Z,27.40
2019-03-15T14:24:46.976Z,30.62
2019-03-15T14:27:17.206Z,18.30
2019-03-15T14:29:46.051Z,24.50
2019-03-15T14:32:15.902Z,24.25
2019-03-15T14:34:44.918Z,25.92
2019-03-15T14:37:20.340Z,30.77
2019-03-15T14:39:49.584Z,23.15
2019-03-15T14:42:18.822Z,23.83
2019-03-15T14:44:48.239Z,21.87
2019-03-15T14:47:18.417Z,26.23
2019-03-15T14:49:47.690Z,22.13
2019-03-15T14:52:16.903Z,24.55
2019-03-15T14:54:46.226Z,25.10
2019-03-15T14:57:15.558Z,25.48
2019-03-15T14:59:45.256Z,26.75
2019-03-15T15:02:20.330Z,22.58
2019-03-15T15:04:49.640Z,25.15
2019-03-15T15:07:19.056Z,18.80
2019-03-15T15:09:48.308Z,28.70
2019-03-15T15:12:17.530Z,28.90
2019-03-15T15:14:47.050Z,26.80
2019-03-15T15:17:16.254Z,28.92
2019-03-15T15:19:45.478Z,20.72
2019-03-15T15:22:14.762Z,27.20
2019-03-15T15:24:44.011Z,21.25
2019-03-15T15:27:13.275Z,23.75
2019-03-15T15:29:42.201Z,28.62
2019-03-15T15:32:14.117Z,22.95
2019-03-15T15:34:43.405Z,15.93
2019-03-15T15:37:15.071Z,20.60
2019-03-15T15:39:44.560Z,15.58
2019-03-15T15:42:13.789Z,13.30
2019-03-15T15:44:42.943Z,15.93
2019-03-15T15:47:12.025Z,19.37
2019-03-15T15:49:41.184Z,17.30
2019-03-15T15:52:10.378Z,22.13
2019-03-15T15:54:39.616Z,16.95
2019-03-15T15:57:08.452Z,22.70
2019-03-15T15:59:37.716Z,16.73
2019-03-15T16:02:08.618Z,22.20
2019-03-15T16:04:40.154Z,19.05
2019-03-15T16:07:10.130Z,19.42
2019-03-15T16:09:42.336Z,21.55
2019-03-15T16:12:13.096Z,22.90
2019-03-15T16:14:43.191Z,19.48
2019-03-15T16:17:14.744Z,19.07
2019-03-15T16:19:45.154Z,20.15
2019-03-15T16:22:14.392Z,17.15
2019-03-15T16:24:46.736Z,22.95
2019-03-15T16:27:19.817Z,21.27
2019-03-15T16:29:49.455Z,19.12
2019-03-15T16:32:18.913Z,13.83
2019-03-15T16:34:58.206Z,17.55
2019-03-15T16:37:28.482Z,15.85
2019-03-15T16:39:59.221Z,16.07
2019-03-15T16:42:45.027Z,21.65
2019-03-15T16:45:20.042Z,12.68
2019-03-15T16:47:51.387Z,15.10
2019-03-15T16:50:20.845Z,17.42
2019-03-15T16:52:50.326Z,15.88
2019-03-15T16:55:22.511Z,14.58
2019-03-15T16:57:51.656Z,17.42
2019-03-15T17:00:20.918Z,22.55
2019-03-15T17:02:50.406Z,15.10
2019-03-15T17:05:19.788Z,17.45
2019-03-15T17:07:49.130Z,13.53
2019-03-15T17:10:18.321Z,13.95
2019-03-15T17:12:47.850Z,11.20
2019-03-15T17:15:17.432Z,13.43
2019-03-15T17:21:07.843Z,14.95
2019-03-15T17:23:37.796Z,14.80
2019-03-15T17:26:07.699Z,13.43
2019-03-15T17:28:37.636Z,13.53
2019-03-15T17:31:10.198Z,14.40
2019-03-15T17:33:38.249Z,18.07
2019-03-15T17:36:07.547Z,9.83
2019-03-15T17:38:36.899Z,14.73
2019-03-15T17:41:06.588Z,14.47
2019-03-15T17:43:36.303Z,14.13
2019-03-15T17:46:08.719Z,14.95
2019-03-15T17:48:55.873Z,11.12
2019-03-15T17:51:25.059Z,14.07
2019-03-15T17:53:54.161Z,13.65
2019-03-15T17:56:23.369Z,15.28
2019-03-15T17:58:52.970Z,13.43
2019-03-15T18:01:22.124Z,13.98
2019-03-15T18:03:52.805Z,8.40
2019-03-15T18:06:22.282Z,12.18
2019-03-15T18:08:51.426Z,9.35
2019-03-15T18:11:21.102Z,9.90
2019-03-15T18:13:51.136Z,9.75
2019-03-15T18:16:20.482Z,8.53
2019-03-15T18:18:49.876Z,12.28
2019-03-15T18:21:21.022Z,12.53
2019-03-15T18:23:50.120Z,12.03
2019-03-15T18:26:19.422Z,15.50
2019-03-15T18:28:48.718Z,11.80
2019-03-15T18:31:21.227Z,12.75
2019-03-15T18:33:49.945Z,10.32
2019-03-15T18:36:19.707Z,10.20
2019-03-15T18:38:48.841Z,11.18
2019-03-15T18:41:18.303Z,11.80
2019-03-15T18:43:47.759Z,10.35
2019-03-15T18:46:19.737Z,7.80
2019-03-15T18:48:51.789Z,12.73
2019-03-15T18:51:20.979Z,12.28
2019-03-15T18:53:50.916Z,11.43
2019-03-15T18:56:20.611Z,10.55
2019-03-15T18:58:51.376Z,9.13
2019-03-15T19:01:23.850Z,7.35
2019-03-15T19:03:53.606Z,9.98
2019-03-15T19:06:23.059Z,11.75
2019-03-15T19:08:52.369Z,18.82
2019-03-15T19:11:21.705Z,14.30
2019-03-15T19:13:51.088Z,13.83
2019-03-15T19:16:20.587Z,9.10
2019-03-15T19:18:51.453Z,11.38
2019-03-15T19:21:23.357Z,11.70
2019-03-15T19:23:52.699Z,11.60
2019-03-15T19:26:23.326Z,14.68
2019-03-15T19:28:52.531Z,12.82
2019-03-15T19:31:21.715Z,10.70
2019-03-15T19:33:50.971Z,8.28
2019-03-15T19:36:20.276Z,9.55
2019-03-15T19:38:49.621Z,12.05
2019-03-15T19:41:20.416Z,10.43
2019-03-15T19:43:49.905Z,10.68
2019-03-15T19:46:19.261Z,12.40
2019-03-15T19:48:48.661Z,11.65
2019-03-15T19:51:17.941Z,13.95
2019-03-15T19:53:47.221Z,13.18
2019-03-15T19:56:16.914Z,8.13
2019-03-15T19:58:48.266Z,14.78
2019-03-15T20:01:17.597Z,10.25
2019-03-15T20:03:48.484Z,10.78
2019-03-15T20:06:17.757Z,12.95
2019-03-15T20:08:46.977Z,8.98
2019-03-15T20:11:17.370Z,15.30
2019-03-15T20:13:47.014Z,12.03
2019-03-15T20:16:16.420Z,10.30
2019-03-15T20:18:47.397Z,7.25
2019-03-15T20:21:16.843Z,10.35
2019-03-15T20:23:46.158Z,9.03
2019-03-15T20:26:18.624Z,11.12
2019-03-15T20:28:48.313Z,12.58
2019-03-15T20:31:21.504Z,7.83
2019-03-15T20:33:50.743Z,11.03
2019-03-15T20:36:19.920Z,13.83
2019-03-15T20:38:49.473Z,11.78
2019-03-15T20:41:21.137Z,11.33
2019-03-15T20:43:50.430Z,12.93
2019-03-15T20:46:20.062Z,11.48
2019-03-15T20:48:53.597Z,7.03
2019-03-15T20:51:25.940Z,13.18
2019-03-15T20:53:55.953Z,11.55
2019-03-15T20:56:27.589Z,10.90
2019-03-15T20:59:04.913Z,20.60
2019-03-15T21:01:34.543Z,19.67
2019-03-15T21:04:04.200Z,12.33
2019-03-15T21:06:33.575Z,9.43
2019-03-15T21:09:03.145Z,10.13
2019-03-15T21:11:35.781Z,9.08
2019-03-15T21:14:04.993Z,10.23
2019-03-15T21:16:34.091Z,18.17
2019-03-15T21:19:03.500Z,11.55
2019-03-15T21:21:32.709Z,6.03
2019-03-15T21:24:01.891Z,8.25
2019-03-15T21:26:30.930Z,8.38
2019-03-15T21:29:00.086Z,8.60
2019-03-15T21:31:29.759Z,11.28
2019-03-15T21:33:58.918Z,9.18
2019-03-15T21:36:28.338Z,10.40
2019-03-15T21:38:57.463Z,11.22
2019-03-15T21:41:27.836Z,16.48
2019-03-15T21:43:56.983Z,7.40
2019-03-15T21:46:26.354Z,11.25
2019-03-15T21:48:55.421Z,12.98
2019-03-15T21:51:27.578Z,10.43
2019-03-15T21:54:13.624Z,11.33
2019-03-15T21:56:43.037Z,8.93
2019-03-15T21:59:12.303Z,11.08
2019-03-15T22:07:27.709Z,5.62
2019-03-15T22:10:03.308Z,9.90
2019-03-15T22:12:32.461Z,11.08
2019-03-15T22:15:42.505Z,7.75
2019-03-15T22:18:28.287Z,7.00
2019-03-15T22:21:08.004Z,6.90
2019-03-15T22:27:38.272Z,6.35
2019-03-15T22:32:45.523Z,9.23
2019-03-15T22:35:22.320Z,5.75
2019-03-15T22:38:03.315Z,6.55
2019-03-15T22:46:43.925Z,6.75
2019-03-15T22:49:15.991Z,8.15
2019-03-15T22:51:45.151Z,8.43
2019-03-15T22:54:27.652Z,3.47
2019-03-15T22:57:28.159Z,4.70
2019-03-15T23:05:50.768Z,5.30
2019-03-15T23:08:20.312Z,6.28
2019-03-15T23:11:00.271Z,6.25
2019-03-15T23:14:04.356Z,4.67
2019-03-15T23:19:10.986Z,7.25
2019-03-15T23:21:40.317Z,9.65
2019-03-15T23:24:09.534Z,6.40
2019-03-15T23:26:50.721Z,7.53
2019-03-15T23:29:26.222Z,8.55
2019-03-15T23:31:55.339Z,5.08
2019-03-15T23:34:39.560Z,6.62
2019-03-15T23:37:06.356Z,6.53
2019-03-15T23:39:39.670Z,5.70
2019-03-15T23:42:08.861Z,4.47
2019-03-15T23:45:24.195Z,7.28
2019-03-15T23:48:26.549Z,4.35
2019-03-15T23:51:03.109Z,6.25
2019-03-15T23:53:32.534Z,5.25
2019-03-15T23:57:20.676Z,7.78
2019-03-15T23:59:25.719Z,8.08
